createdAt,value
2019-02-05T00:00:13.884Z,1021.03
2019-02-05T00:01:13.821Z,1021.07
2019-02-05T00:02:13.787Z,1021.09
2019-02-05T00:03:13.723Z,1021.17
2019-02-05T00:04:13.672Z,1021.20
2019-02-05T00:05:13.621Z,1021.24
2019-02-05T00:06:13.580Z,1021.24
2019-02-05T00:07:13.521Z,1021.28
2019-02-05T00:08:13.471Z,1021.21
2019-02-05T00:09:13.420Z,1021.24
2019-02-05T00:10:13.382Z,1021.29
2019-02-05T00:11:13.317Z,1021.23
2019-02-05T00:12:13.266Z,1021.18
2019-02-05T00:13:13.219Z,1021.14
2019-02-05T00:14:13.172Z,1021.10
2019-02-05T00:15:13.115Z,1021.07
2019-02-05T00:16:13.072Z,1021.05
2019-02-05T00:17:13.019Z,1021.15
2019-02-05T00:18:12.967Z,1021.16
2019-02-05T00:19:12.920Z,1021.20
2019-02-05T00:20:12.868Z,1021.25
2019-02-05T00:21:12.833Z,1021.29
2019-02-05T00:22:12.765Z,1021.27
2019-02-05T00:23:12.713Z,1021.26
2019-02-05T00:24:12.667Z,1021.28
2019-02-05T00:25:12.611Z,1021.33
2019-02-05T00:26:12.561Z,1021.30
2019-02-05T00:27:12.512Z,1021.34
2019-02-05T00:28:12.469Z,1021.31
2019-02-05T00:29:12.407Z,1021.39
2019-02-05T00:30:12.364Z,1021.32
2019-02-05T00:31:12.317Z,1021.35
2019-02-05T00:32:12.254Z,1021.41
2019-02-05T00:33:12.211Z,1021.42
2019-02-05T00:34:12.156Z,1021.49
2019-02-05T00:35:12.105Z,1021.40
2019-02-05T00:36:12.053Z,1021.41
2019-02-05T00:37:12.025Z,1021.49
2019-02-05T00:38:11.955Z,1021.46
2019-02-05T00:39:11.902Z,1021.50
2019-02-05T00:40:11.853Z,1021.49
2019-02-05T00:41:11.802Z,1021.49
2019-02-05T00:42:11.749Z,1021.44
2019-02-05T00:43:11.710Z,1021.46
2019-02-05T00:44:11.650Z,1021.46
2019-02-05T00:45:11.604Z,1021.46
2019-02-05T00:46:11.553Z,1021.49
2019-02-05T00:47:11.499Z,1021.46
2019-02-05T00:48:11.447Z,1021.49
2019-02-05T00:49:11.396Z,1021.50
2019-02-05T00:50:11.401Z,1021.54
2019-02-05T00:51:11.296Z,1021.55
2019-02-05T00:52:11.247Z,1021.58
2019-02-05T00:53:11.286Z,1021.57
2019-02-05T00:54:11.143Z,1021.65
2019-02-05T00:55:11.094Z,1021.57
2019-02-05T00:56:17.685Z,1021.55
2019-02-05T00:57:10.993Z,1021.56
2019-02-05T00:58:10.948Z,1021.55
2019-02-05T00:59:10.896Z,1021.54
2019-02-05T01:00:10.839Z,1021.50
2019-02-05T01:01:10.809Z,1021.48
2019-02-05T01:02:10.740Z,1021.51
2019-02-05T01:03:10.689Z,1021.46
2019-02-05T01:04:10.694Z,1021.49
2019-02-05T01:05:10.586Z,1021.55
2019-02-05T01:06:10.547Z,1021.55
2019-02-05T01:07:10.485Z,1021.58
2019-02-05T01:08:10.442Z,1021.56
2019-02-05T01:09:10.392Z,1021.57
2019-02-05T01:10:10.336Z,1021.54
2019-02-05T01:11:10.283Z,1021.53
2019-02-05T01:12:10.240Z,1021.47
2019-02-05T01:13:10.185Z,1021.55
2019-02-05T01:14:10.131Z,1021.55
2019-02-05T01:15:10.090Z,1021.53
2019-02-05T01:16:10.030Z,1021.53
2019-02-05T01:17:09.988Z,1021.51
2019-02-05T01:18:09.931Z,1021.52
2019-02-05T01:19:09.879Z,1021.54
2019-02-05T01:20:09.828Z,1021.50
2019-02-05T01:21:09.788Z,1021.49
2019-02-05T01:22:09.727Z,1021.50
2019-02-05T01:23:09.676Z,1021.54
2019-02-05T01:24:09.633Z,1021.52
2019-02-05T01:25:09.584Z,1021.53
2019-02-05T01:26:09.523Z,1021.53
2019-02-05T01:27:09.482Z,1021.58
2019-02-05T01:28:09.423Z,1021.60
2019-02-05T01:29:09.378Z,1021.64
2019-02-05T01:30:09.345Z,1021.69
2019-02-05T01:31:09.272Z,1021.64
2019-02-05T01:32:09.221Z,1021.60
2019-02-05T01:33:09.179Z,1021.61
2019-02-05T01:34:09.118Z,1021.56
2019-02-05T01:35:09.073Z,1021.57
2019-02-05T01:36:09.024Z,1021.64
2019-02-05T01:37:08.968Z,1021.66
2019-02-05T01:38:08.923Z,1021.63
2019-02-05T01:39:08.867Z,1021.65
2019-02-05T01:40:08.817Z,1021.69
2019-02-05T01:41:08.775Z,1021.73
2019-02-05T01:42:08.723Z,1021.74
2019-02-05T01:43:08.666Z,1021.72
2019-02-05T01:44:08.613Z,1021.74
2019-02-05T01:45:08.569Z,1021.71
2019-02-05T01:46:08.516Z,1021.74
2019-02-05T01:47:08.462Z,1021.71
2019-02-05T01:48:08.413Z,1021.74
2019-02-05T01:49:08.368Z,1021.74
2019-02-05T01:50:08.312Z,1021.69
2019-02-05T01:51:08.268Z,1021.73
2019-02-05T01:52:08.214Z,1021.74
2019-02-05T01:53:08.159Z,1021.74
2019-02-05T01:54:08.116Z,1021.75
2019-02-05T01:55:08.066Z,1021.82
2019-02-05T01:56:08.016Z,1021.78
2019-02-05T01:57:07.957Z,1021.79
2019-02-05T01:58:07.911Z,1021.80
2019-02-05T01:59:07.862Z,1021.82
2019-02-05T02:00:07.807Z,1021.86
2019-02-05T02:01:07.762Z,1021.82
2019-02-05T02:02:07.713Z,1021.86
2019-02-05T02:03:07.663Z,1021.85
2019-02-05T02:04:07.607Z,1021.84
2019-02-05T02:05:07.557Z,1021.82
2019-02-05T02:06:07.507Z,1021.81
2019-02-05T02:07:07.461Z,1021.81
2019-02-05T02:08:07.404Z,1021.83
2019-02-05T02:09:07.355Z,1021.79
2019-02-05T02:10:07.299Z,1021.81
2019-02-05T02:11:07.249Z,1021.80
2019-02-05T02:12:07.201Z,1021.80
2019-02-05T02:13:07.151Z,1021.77
2019-02-05T02:14:07.098Z,1021.78
2019-02-05T02:15:07.057Z,1021.72
2019-02-05T02:16:07.010Z,1021.73
2019-02-05T02:17:06.960Z,1021.70
2019-02-05T02:18:06.910Z,1021.69
2019-02-05T02:19:06.873Z,1021.71
2019-02-05T02:20:06.801Z,1021.64
2019-02-05T02:21:06.747Z,1021.67
2019-02-05T02:22:06.694Z,1021.65
2019-02-05T02:23:06.645Z,1021.62
2019-02-05T02:24:06.597Z,1021.64
2019-02-05T02:25:06.544Z,1021.65
2019-02-05T02:26:06.490Z,1021.65
2019-02-05T02:27:06.440Z,1021.63
2019-02-05T02:28:06.390Z,1021.65
2019-02-05T02:29:06.341Z,1021.67
2019-02-05T02:30:06.304Z,1021.69
2019-02-05T02:31:06.246Z,1021.71
2019-02-05T02:32:06.194Z,1021.69
2019-02-05T02:33:06.148Z,1021.67
2019-02-05T02:34:06.088Z,1021.73
2019-02-05T02:35:06.039Z,1021.74
2019-02-05T02:36:05.989Z,1021.74
2019-02-05T02:37:05.941Z,1021.72
2019-02-05T02:38:05.893Z,1021.72
2019-02-05T02:39:05.851Z,1021.75
2019-02-05T02:40:05.788Z,1021.78
2019-02-05T02:41:05.738Z,1021.82
2019-02-05T02:42:05.691Z,1021.79
2019-02-05T02:43:05.639Z,1021.82
2019-02-05T02:44:05.584Z,1021.81
2019-02-05T02:45:05.533Z,1021.80
2019-02-05T02:46:05.483Z,1021.81
2019-02-05T02:47:05.438Z,1021.81
2019-02-05T02:48:05.391Z,1021.83
2019-02-05T02:49:05.336Z,1021.82
2019-02-05T02:50:05.279Z,1021.84
2019-02-05T02:51:05.236Z,1021.80
2019-02-05T02:52:05.180Z,1021.83
2019-02-05T02:53:05.136Z,1021.82
2019-02-05T02:54:05.081Z,1021.83
2019-02-05T02:55:05.038Z,1021.83
2019-02-05T02:56:05.001Z,1021.77
2019-02-05T02:57:05.169Z,1021.83
2019-02-05T02:58:04.901Z,1021.81
2019-02-05T02:59:04.836Z,1021.82
2019-02-05T03:00:04.781Z,1021.79
2019-02-05T03:01:04.790Z,1021.78
2019-02-05T03:02:04.677Z,1021.76
2019-02-05T03:03:04.625Z,1021.76
2019-02-05T03:04:04.579Z,1021.84
2019-02-05T03:05:04.526Z,1021.85
2019-02-05T03:06:04.481Z,1021.89
2019-02-05T03:07:04.427Z,1021.90
2019-02-05T03:08:04.378Z,1021.90
2019-02-05T03:09:04.323Z,1021.95
2019-02-05T03:10:04.290Z,1021.92
2019-02-05T03:11:04.223Z,1021.91
2019-02-05T03:12:04.179Z,1021.95
2019-02-05T03:13:04.130Z,1021.94
2019-02-05T03:14:04.076Z,1021.92
2019-02-05T03:15:04.027Z,1021.93
2019-02-05T03:16:03.978Z,1021.92
2019-02-05T03:17:03.931Z,1021.91
2019-02-05T03:18:03.882Z,1021.86
2019-02-05T03:19:03.819Z,1021.83
2019-02-05T03:20:03.770Z,1021.87
2019-02-05T03:21:03.723Z,1021.83
2019-02-05T03:22:03.667Z,1021.82
2019-02-05T03:23:03.627Z,1021.84
2019-02-05T03:24:03.573Z,1021.87
2019-02-05T03:25:03.521Z,1021.88
2019-02-05T03:26:03.476Z,1021.88
2019-02-05T03:27:03.419Z,1021.87
2019-02-05T03:28:03.374Z,1021.90
2019-02-05T03:29:03.326Z,1021.88
2019-02-05T03:30:03.290Z,1021.89
2019-02-05T03:31:03.223Z,1021.86
2019-02-05T03:32:03.177Z,1021.88
2019-02-05T03:33:03.139Z,1021.86
2019-02-05T03:34:03.066Z,1021.86
2019-02-05T03:35:03.014Z,1021.85
2019-02-05T03:36:02.962Z,1021.83
2019-02-05T03:37:02.914Z,1021.83
2019-02-05T03:38:02.868Z,1021.87
2019-02-05T03:39:02.829Z,1021.86
2019-02-05T03:40:02.772Z,1021.90
2019-02-05T03:41:02.793Z,1021.91
2019-02-05T03:42:02.664Z,1021.92
2019-02-05T03:43:02.611Z,1021.92
2019-02-05T03:44:02.563Z,1021.89
2019-02-05T03:45:02.516Z,1021.86
2019-02-05T03:46:02.459Z,1021.89
2019-02-05T03:47:02.412Z,1021.90
2019-02-05T03:48:02.362Z,1021.90
2019-02-05T03:49:02.318Z,1021.92
2019-02-05T03:50:02.259Z,1021.85
2019-02-05T03:51:02.209Z,1021.86
2019-02-05T03:52:02.159Z,1021.87
2019-02-05T03:53:02.123Z,1021.89
2019-02-05T03:54:02.060Z,1021.90
2019-02-05T03:55:02.033Z,1021.97
2019-02-05T03:56:01.961Z,1021.96
2019-02-05T03:57:01.911Z,1022.00
2019-02-05T03:58:01.855Z,1021.97
2019-02-05T03:59:01.805Z,1021.98
2019-02-05T04:00:01.779Z,1021.93
2019-02-05T04:01:01.704Z,1021.95
2019-02-05T04:02:01.653Z,1021.96
2019-02-05T04:03:01.615Z,1021.92
2019-02-05T04:04:01.553Z,1021.94
2019-02-05T04:05:01.503Z,1021.95
2019-02-05T04:06:01.455Z,1021.91
2019-02-05T04:07:01.412Z,1021.98
2019-02-05T04:08:01.359Z,1022.01
2019-02-05T04:09:01.315Z,1022.00
2019-02-05T04:10:01.262Z,1022.00
2019-02-05T04:11:01.202Z,1021.98
2019-02-05T04:12:01.672Z,1022.04
2019-02-05T04:13:01.102Z,1022.03
2019-02-05T04:14:01.052Z,1022.02
2019-02-05T04:15:01.234Z,1021.96
2019-02-05T04:16:00.953Z,1022.00
2019-02-05T04:17:00.920Z,1021.95
2019-02-05T04:18:00.850Z,1021.92
2019-02-05T04:19:00.805Z,1021.93
2019-02-05T04:20:00.754Z,1021.94
2019-02-05T04:21:00.701Z,1021.93
2019-02-05T04:22:00.660Z,1021.93
2019-02-05T04:23:00.604Z,1021.95
2019-02-05T04:24:00.546Z,1021.99
2019-02-05T04:25:00.504Z,1022.01
2019-02-05T04:26:00.447Z,1022.04
2019-02-05T04:27:00.408Z,1021.99
2019-02-05T04:28:00.345Z,1021.98
2019-02-05T04:29:00.295Z,1021.95
2019-02-05T04:30:00.247Z,1021.98
2019-02-05T04:31:00.209Z,1022.03
2019-02-05T04:32:00.145Z,1022.00
2019-02-05T04:33:00.103Z,1022.02
2019-02-05T04:34:00.041Z,1022.00
2019-02-05T04:34:59.994Z,1021.99
2019-02-05T04:35:59.942Z,1021.96
2019-02-05T04:36:59.900Z,1021.99
2019-02-05T04:37:59.847Z,1021.99
2019-02-05T04:38:59.800Z,1021.98
2019-02-05T04:39:59.741Z,1022.00
2019-02-05T04:40:59.690Z,1021.95
2019-02-05T04:41:59.638Z,1021.97
2019-02-05T04:42:59.589Z,1022.00
2019-02-05T04:43:59.540Z,1022.01
2019-02-05T04:44:59.495Z,1022.02
2019-02-05T04:45:59.439Z,1022.04
2019-02-05T04:46:59.397Z,1022.05
2019-02-05T04:47:59.338Z,1022.04
2019-02-05T04:48:59.299Z,1022.07
2019-02-05T04:49:59.246Z,1022.07
2019-02-05T04:50:59.188Z,1022.07
2019-02-05T04:51:59.146Z,1022.10
2019-02-05T04:52:59.088Z,1022.12
2019-02-05T04:53:59.037Z,1022.10
2019-02-05T04:54:58.993Z,1022.14
2019-02-05T04:55:58.937Z,1022.16
2019-02-05T04:56:58.895Z,1022.19
2019-02-05T04:58:01.488Z,1022.18
2019-02-05T04:58:58.788Z,1022.20
2019-02-05T04:59:58.740Z,1022.20
2019-02-05T05:00:58.687Z,1022.20
2019-02-05T05:01:58.633Z,1022.16
2019-02-05T05:02:58.582Z,1022.20
2019-02-05T05:03:58.538Z,1022.17
2019-02-05T05:04:58.484Z,1022.20
2019-02-05T05:05:58.438Z,1022.13
2019-02-05T05:06:58.390Z,1022.21
2019-02-05T05:07:58.331Z,1022.24
2019-02-05T05:08:58.285Z,1022.21
2019-02-05T05:09:58.249Z,1022.21
2019-02-05T05:10:58.185Z,1022.23
2019-02-05T05:11:58.139Z,1022.23
2019-02-05T05:12:58.087Z,1022.25
2019-02-05T05:13:58.036Z,1022.24
2019-02-05T05:14:57.983Z,1022.27
2019-02-05T05:15:57.941Z,1022.26
2019-02-05T05:16:57.886Z,1022.20
2019-02-05T05:17:57.831Z,1022.31
2019-02-05T05:18:57.780Z,1022.30
2019-02-05T05:19:57.734Z,1022.28
2019-02-05T05:20:57.680Z,1022.25
2019-02-05T05:21:57.631Z,1022.21
2019-02-05T05:22:57.576Z,1022.22
2019-02-05T05:23:57.532Z,1022.17
2019-02-05T05:24:57.477Z,1022.18
2019-02-05T05:25:57.432Z,1022.14
2019-02-05T05:26:57.505Z,1022.21
2019-02-05T05:28:09.463Z,1022.14
2019-02-05T05:28:57.280Z,1022.17
2019-02-05T05:29:57.231Z,1022.16
2019-02-05T05:30:57.177Z,1022.14
2019-02-05T05:31:57.131Z,1022.13
2019-02-05T05:32:57.080Z,1022.13
2019-02-05T05:33:57.032Z,1022.16
2019-02-05T05:34:56.973Z,1022.18
2019-02-05T05:35:56.955Z,1022.19
2019-02-05T05:36:56.876Z,1022.17
2019-02-05T05:37:56.840Z,1022.21
2019-02-05T05:38:56.776Z,1022.26
2019-02-05T05:39:56.732Z,1022.23
2019-02-05T05:40:56.677Z,1022.20
2019-02-05T05:41:56.627Z,1022.23
2019-02-05T05:42:56.577Z,1022.28
2019-02-05T05:43:56.529Z,1022.28
2019-02-05T05:44:56.474Z,1022.34
2019-02-05T05:45:56.422Z,1022.33
2019-02-05T05:46:56.371Z,1022.39
2019-02-05T05:47:56.332Z,1022.44
2019-02-05T05:48:56.271Z,1022.38
2019-02-05T05:49:56.219Z,1022.40
2019-02-05T05:50:56.180Z,1022.43
2019-02-05T05:51:56.129Z,1022.42
2019-02-05T05:52:56.073Z,1022.44
2019-02-05T05:53:56.024Z,1022.42
2019-02-05T05:54:55.975Z,1022.42
2019-02-05T05:55:55.922Z,1022.40
2019-02-05T05:56:55.876Z,1022.43
2019-02-05T05:57:55.819Z,1022.45
2019-02-05T05:58:55.776Z,1022.40
2019-02-05T05:59:55.811Z,1022.41
2019-02-05T06:00:55.676Z,1022.46
2019-02-05T06:01:55.622Z,1022.33
2019-02-05T06:02:55.571Z,1022.44
2019-02-05T06:03:55.521Z,1022.47
2019-02-05T06:04:55.481Z,1022.47
2019-02-05T06:05:55.436Z,1022.45
2019-02-05T06:06:55.369Z,1022.48
2019-02-05T06:07:55.321Z,1022.41
2019-02-05T06:08:55.276Z,1022.44
2019-02-05T06:09:55.233Z,1022.43
2019-02-05T06:10:55.179Z,1022.46
2019-02-05T06:11:55.124Z,1022.48
2019-02-05T06:12:55.073Z,1022.48
2019-02-05T06:13:55.017Z,1022.51
2019-02-05T06:14:54.971Z,1022.55
2019-02-05T06:15:54.923Z,1022.61
2019-02-05T06:16:54.877Z,1022.54
2019-02-05T06:17:54.834Z,1022.54
2019-02-05T06:18:54.772Z,1022.51
2019-02-05T06:19:54.734Z,1022.55
2019-02-05T06:20:54.673Z,1022.58
2019-02-05T06:21:54.621Z,1022.60
2019-02-05T06:22:54.566Z,1022.65
2019-02-05T06:23:54.520Z,1022.66
2019-02-05T06:24:54.464Z,1022.71
2019-02-05T06:25:54.432Z,1022.72
2019-02-05T06:26:54.363Z,1022.74
2019-02-05T06:27:54.320Z,1022.75
2019-02-05T06:28:54.264Z,1022.74
2019-02-05T06:29:54.232Z,1022.75
2019-02-05T06:30:54.174Z,1022.78
2019-02-05T06:31:54.122Z,1022.80
2019-02-05T06:32:54.070Z,1022.82
2019-02-05T06:33:54.012Z,1022.79
2019-02-05T06:34:55.737Z,1022.80
2019-02-05T06:35:53.922Z,1022.83
2019-02-05T06:36:53.892Z,1022.84
2019-02-05T06:37:53.813Z,1022.84
2019-02-05T06:38:53.765Z,1022.90
2019-02-05T06:39:53.720Z,1022.89
2019-02-05T06:40:53.680Z,1022.87
2019-02-05T06:41:53.613Z,1022.89
2019-02-05T06:42:53.569Z,1022.87
2019-02-05T06:43:53.512Z,1022.86
2019-02-05T06:44:53.462Z,1022.89
2019-02-05T06:45:53.411Z,1022.92
2019-02-05T06:46:53.365Z,1022.91
2019-02-05T06:47:53.314Z,1022.89
2019-02-05T06:48:53.265Z,1022.89
2019-02-05T06:49:53.211Z,1022.92
2019-02-05T06:50:53.162Z,1022.90
2019-02-05T06:51:53.111Z,1022.93
2019-02-05T06:52:53.061Z,1022.94
2019-02-05T06:53:53.017Z,1022.93
2019-02-05T06:54:52.966Z,1022.94
2019-02-05T06:55:52.936Z,1022.93
2019-02-05T06:56:52.893Z,1022.96
2019-02-05T06:57:52.812Z,1022.95
2019-02-05T06:58:52.763Z,1022.99
2019-02-05T06:59:52.710Z,1023.01
2019-02-05T07:00:52.659Z,1023.03
2019-02-05T07:01:52.615Z,1023.03
2019-02-05T07:02:53.245Z,1023.01
2019-02-05T07:03:52.507Z,1023.01
2019-02-05T07:04:52.465Z,1023.00
2019-02-05T07:05:52.406Z,1023.05
2019-02-05T07:06:52.362Z,1023.05
2019-02-05T07:07:52.313Z,1023.03
2019-02-05T07:08:52.259Z,1023.05
2019-02-05T07:09:52.233Z,1022.98
2019-02-05T07:10:52.156Z,1023.08
2019-02-05T07:11:52.113Z,1023.05
2019-02-05T07:12:52.055Z,1023.09
2019-02-05T07:13:52.012Z,1023.06
2019-02-05T07:14:51.964Z,1023.09
2019-02-05T07:15:51.915Z,1023.12
2019-02-05T07:16:51.855Z,1023.12
2019-02-05T07:17:51.812Z,1023.18
2019-02-05T07:18:51.762Z,1023.15
2019-02-05T07:19:51.704Z,1023.21
2019-02-05T07:20:51.664Z,1023.23
2019-02-05T07:21:51.611Z,1023.20
2019-02-05T07:22:51.561Z,1023.23
2019-02-05T07:23:51.515Z,1023.23
2019-02-05T07:24:51.459Z,1023.24
2019-02-05T07:25:51.405Z,1023.21
2019-02-05T07:26:51.362Z,1023.20
2019-02-05T07:27:51.305Z,1023.24
2019-02-05T07:28:59.983Z,1023.23
2019-02-05T07:29:51.210Z,1023.22
2019-02-05T07:30:51.159Z,1023.22
2019-02-05T07:31:51.109Z,1023.25
2019-02-05T07:32:51.052Z,1023.27
2019-02-05T07:33:51.010Z,1023.24
2019-02-05T07:34:50.965Z,1023.26
2019-02-05T07:35:55.956Z,1023.30
2019-02-05T07:36:50.859Z,1023.34
2019-02-05T07:37:50.806Z,1023.32
2019-02-05T07:38:50.772Z,1023.32
2019-02-05T07:39:50.704Z,1023.30
2019-02-05T07:40:50.660Z,1023.32
2019-02-05T07:41:50.604Z,1023.33
2019-02-05T07:42:50.559Z,1023.33
2019-02-05T07:43:50.503Z,1023.36
2019-02-05T07:44:50.461Z,1023.39
2019-02-05T07:45:50.403Z,1023.37
2019-02-05T07:46:50.359Z,1023.37
2019-02-05T07:47:50.305Z,1023.40
2019-02-05T07:48:50.253Z,1023.42
2019-02-05T07:49:50.201Z,1023.37
2019-02-05T07:50:50.153Z,1023.43
2019-02-05T07:51:50.110Z,1023.41
2019-02-05T07:52:50.052Z,1023.39
2019-02-05T07:53:50.009Z,1023.38
2019-02-05T07:54:49.953Z,1023.39
2019-02-05T07:55:49.913Z,1023.42
2019-02-05T07:56:49.855Z,1023.44
2019-02-05T07:57:49.800Z,1023.45
2019-02-05T07:58:49.760Z,1023.53
2019-02-05T07:59:49.704Z,1023.49
2019-02-05T08:00:49.654Z,1023.53
2019-02-05T08:01:49.604Z,1023.55
2019-02-05T08:02:49.575Z,1023.60
2019-02-05T08:03:49.507Z,1023.62
2019-02-05T08:04:49.450Z,1023.59
2019-02-05T08:05:49.407Z,1023.63
2019-02-05T08:06:49.367Z,1023.65
2019-02-05T08:07:49.307Z,1023.66
2019-02-05T08:08:49.250Z,1023.63
2019-02-05T08:09:49.200Z,1023.64
2019-02-05T08:10:49.149Z,1023.65
2019-02-05T08:11:49.110Z,1023.70
2019-02-05T08:12:49.053Z,1023.66
2019-02-05T08:13:49.003Z,1023.67
2019-02-05T08:14:48.949Z,1023.68
2019-02-05T08:15:48.904Z,1023.64
2019-02-05T08:16:48.853Z,1023.70
2019-02-05T08:17:48.821Z,1023.67
2019-02-05T08:18:48.791Z,1023.68
2019-02-05T08:19:48.706Z,1023.72
2019-02-05T08:20:48.655Z,1023.70
2019-02-05T08:21:48.611Z,1023.71
2019-02-05T08:22:48.554Z,1023.70
2019-02-05T08:23:48.511Z,1023.78
2019-02-05T08:24:48.455Z,1023.73
2019-02-05T08:25:48.400Z,1023.67
2019-02-05T08:26:48.353Z,1023.67
2019-02-05T08:27:48.318Z,1023.69
2019-02-05T08:28:48.259Z,1023.68
2019-02-05T08:29:48.201Z,1023.68
2019-02-05T08:30:48.153Z,1023.64
2019-02-05T08:31:48.102Z,1023.68
2019-02-05T08:32:48.057Z,1023.69
2019-02-05T08:33:48.012Z,1023.72
2019-02-05T08:34:47.952Z,1023.73
2019-02-05T08:35:47.906Z,1023.74
2019-02-05T08:36:47.867Z,1023.73
2019-02-05T08:37:47.810Z,1023.69
2019-02-05T08:38:47.767Z,1023.67
2019-02-05T08:39:47.783Z,1023.66
2019-02-05T08:40:47.655Z,1023.66
2019-02-05T08:41:47.738Z,1023.69
2019-02-05T08:42:47.608Z,1023.70
2019-02-05T08:43:47.502Z,1023.73
2019-02-05T08:44:47.453Z,1023.78
2019-02-05T08:45:56.419Z,1023.74
2019-02-05T08:46:47.369Z,1023.79
2019-02-05T08:47:47.316Z,1023.80
2019-02-05T08:48:47.262Z,1023.81
2019-02-05T08:49:47.206Z,1023.84
2019-02-05T08:50:47.163Z,1023.87
2019-02-05T08:51:47.102Z,1023.86
2019-02-05T08:52:47.054Z,1023.89
2019-02-05T08:53:47.003Z,1023.88
2019-02-05T08:54:46.965Z,1023.83
2019-02-05T08:55:46.908Z,1023.82
2019-02-05T08:56:46.861Z,1023.80
2019-02-05T08:57:46.831Z,1023.85
2019-02-05T08:58:46.759Z,1023.83
2019-02-05T08:59:46.716Z,1023.84
2019-02-05T09:00:46.656Z,1023.90
2019-02-05T09:01:46.605Z,1023.90
2019-02-05T09:02:46.555Z,1023.94
2019-02-05T09:03:46.521Z,1023.97
2019-02-05T09:04:46.456Z,1023.97
2019-02-05T09:05:46.408Z,1024.03
2019-02-05T09:06:46.360Z,1024.06
2019-02-05T09:07:46.307Z,1024.07
2019-02-05T09:08:46.259Z,1024.05
2019-02-05T09:09:46.210Z,1024.03
2019-02-05T09:10:46.162Z,1024.04
2019-02-05T09:11:46.115Z,1024.02
2019-02-05T09:12:46.058Z,1024.03
2019-02-05T09:13:46.017Z,1023.99
2019-02-05T09:14:45.966Z,1023.96
2019-02-05T09:15:45.917Z,1023.95
2019-02-05T09:16:45.861Z,1023.92
2019-02-05T09:17:45.811Z,1023.98
2019-02-05T09:18:45.763Z,1023.98
2019-02-05T09:19:45.712Z,1023.99
2019-02-05T09:20:45.671Z,1024.02
2019-02-05T09:21:45.612Z,1024.03
2019-02-05T09:22:45.567Z,1024.04
2019-02-05T09:23:45.516Z,1024.06
2019-02-05T09:24:45.464Z,1024.09
2019-02-05T09:25:45.426Z,1024.16
2019-02-05T09:26:45.370Z,1024.15
2019-02-05T09:27:45.314Z,1024.16
2019-02-05T09:28:45.268Z,1024.16
2019-02-05T09:29:45.218Z,1024.15
2019-02-05T09:30:45.173Z,1024.16
2019-02-05T09:31:45.118Z,1024.14
2019-02-05T09:32:45.077Z,1024.09
2019-02-05T09:33:45.087Z,1024.13
2019-02-05T09:34:44.971Z,1024.12
2019-02-05T09:35:44.921Z,1024.13
2019-02-05T09:36:44.885Z,1024.12
2019-02-05T09:37:44.837Z,1024.09
2019-02-05T09:38:44.881Z,1024.11
2019-02-05T09:39:44.739Z,1024.12
2019-02-05T09:40:44.677Z,1024.15
2019-02-05T09:41:44.630Z,1024.13
2019-02-05T09:42:44.581Z,1024.20
2019-02-05T09:43:44.525Z,1024.18
2019-02-05T09:44:44.482Z,1024.22
2019-02-05T09:45:44.426Z,1024.22
2019-02-05T09:46:44.377Z,1024.25
2019-02-05T09:47:44.329Z,1024.23
2019-02-05T09:48:44.278Z,1024.24
2019-02-05T09:49:44.228Z,1024.22
2019-02-05T09:50:45.240Z,1024.25
2019-02-05T09:51:44.177Z,1024.27
2019-02-05T09:52:44.083Z,1024.26
2019-02-05T09:53:44.028Z,1024.23
2019-02-05T09:54:43.981Z,1024.25
2019-02-05T09:55:43.933Z,1024.26
2019-02-05T09:56:43.885Z,1024.25
2019-02-05T09:57:43.833Z,1024.30
2019-02-05T09:58:43.787Z,1024.31
2019-02-05T09:59:45.457Z,1024.35
2019-02-05T10:00:43.698Z,1024.35
2019-02-05T10:01:43.640Z,1024.32
2019-02-05T10:02:43.586Z,1024.36
2019-02-05T10:03:43.536Z,1024.37
2019-02-05T10:04:43.502Z,1024.41
2019-02-05T10:05:43.446Z,1024.43
2019-02-05T10:06:43.390Z,1024.43
2019-02-05T10:07:43.339Z,1024.40
2019-02-05T10:08:43.299Z,1024.43
2019-02-05T10:09:43.244Z,1024.48
2019-02-05T10:10:43.190Z,1024.50
2019-02-05T10:11:43.147Z,1024.52
2019-02-05T10:12:43.092Z,1024.51
2019-02-05T10:13:43.052Z,1024.52
2019-02-05T10:14:42.991Z,1024.54
2019-02-05T10:15:42.952Z,1024.57
2019-02-05T10:16:42.917Z,1024.61
2019-02-05T10:17:42.846Z,1024.60
2019-02-05T10:18:45.721Z,1024.61
2019-02-05T10:19:42.745Z,1024.67
2019-02-05T10:20:42.698Z,1024.60
2019-02-05T10:21:42.649Z,1024.67
2019-02-05T10:22:42.599Z,1024.66
2019-02-05T10:23:42.547Z,1024.69
2019-02-05T10:24:42.499Z,1024.68
2019-02-05T10:25:42.448Z,1024.70
2019-02-05T10:26:42.400Z,1024.67
2019-02-05T10:27:42.361Z,1024.74
2019-02-05T10:28:42.309Z,1024.66
2019-02-05T10:29:42.254Z,1024.68
2019-02-05T10:30:42.210Z,1024.66
2019-02-05T10:31:42.167Z,1024.69
2019-02-05T10:32:42.105Z,1024.66
2019-02-05T10:33:42.063Z,1024.65
2019-02-05T10:34:42.010Z,1024.67
2019-02-05T10:35:41.961Z,1024.72
2019-02-05T10:36:41.909Z,1024.74
2019-02-05T10:37:41.858Z,1024.73
2019-02-05T10:38:41.811Z,1024.73
2019-02-05T10:39:41.764Z,1024.71
2019-02-05T10:40:41.777Z,1024.71
2019-02-05T10:41:41.663Z,1024.71
2019-02-05T10:42:44.104Z,1024.66
2019-02-05T10:43:41.566Z,1024.66
2019-02-05T10:44:41.517Z,1024.69
2019-02-05T10:45:41.466Z,1024.71
2019-02-05T10:46:41.423Z,1024.66
2019-02-05T10:47:41.367Z,1024.68
2019-02-05T10:48:41.317Z,1024.68
2019-02-05T10:49:41.268Z,1024.70
2019-02-05T10:50:41.224Z,1024.69
2019-02-05T10:51:41.177Z,1024.68
2019-02-05T10:52:41.145Z,1024.68
2019-02-05T10:53:41.076Z,1024.67
2019-02-05T10:54:41.024Z,1024.68
2019-02-05T10:55:40.973Z,1024.66
2019-02-05T10:56:40.931Z,1024.64
2019-02-05T10:57:40.877Z,1024.67
2019-02-05T10:58:40.831Z,1024.66
2019-02-05T10:59:40.777Z,1024.67
2019-02-05T11:00:40.730Z,1024.69
2019-02-05T11:01:40.679Z,1024.67
2019-02-05T11:02:40.636Z,1024.71
2019-02-05T11:03:40.580Z,1024.67
2019-02-05T11:04:40.529Z,1024.68
2019-02-05T11:05:40.484Z,1024.69
2019-02-05T11:06:40.432Z,1024.63
2019-02-05T11:07:40.388Z,1024.67
2019-02-05T11:08:40.333Z,1024.67
2019-02-05T11:09:40.285Z,1024.62
2019-02-05T11:10:40.233Z,1024.61
2019-02-05T11:11:40.186Z,1024.58
2019-02-05T11:12:40.142Z,1024.57
2019-02-05T11:13:40.096Z,1024.55
2019-02-05T11:14:40.037Z,1024.55
2019-02-05T11:15:40.002Z,1024.55
2019-02-05T11:16:39.951Z,1024.53
2019-02-05T11:17:39.897Z,1024.53
2019-02-05T11:18:39.841Z,1024.49
2019-02-05T11:19:39.790Z,1024.46
2019-02-05T11:20:39.751Z,1024.45
2019-02-05T11:21:39.700Z,1024.44
2019-02-05T11:22:39.645Z,1024.38
2019-02-05T11:23:39.599Z,1024.40
2019-02-05T11:24:39.543Z,1024.36
2019-02-05T11:25:39.493Z,1024.36
2019-02-05T11:26:39.446Z,1024.39
2019-02-05T11:27:39.401Z,1024.37
2019-02-05T11:28:39.354Z,1024.37
2019-02-05T11:29:39.296Z,1024.35
2019-02-05T11:30:39.256Z,1024.31
2019-02-05T11:31:39.199Z,1024.29
2019-02-05T11:32:39.150Z,1024.27
2019-02-05T11:33:39.109Z,1024.27
2019-02-05T11:34:39.065Z,1024.26
2019-02-05T11:35:39.013Z,1024.23
2019-02-05T11:36:38.954Z,1024.22
2019-02-05T11:37:38.911Z,1024.24
2019-02-05T11:38:38.858Z,1024.23
2019-02-05T11:39:38.811Z,1024.21
2019-02-05T11:40:38.766Z,1024.24
2019-02-05T11:41:38.712Z,1024.20
2019-02-05T11:42:38.667Z,1024.20
2019-02-05T11:43:38.612Z,1024.26
2019-02-05T11:44:38.562Z,1024.23
2019-02-05T11:45:38.521Z,1024.27
2019-02-05T11:46:38.471Z,1024.26
2019-02-05T11:47:38.417Z,1024.31
2019-02-05T11:48:38.371Z,1024.28
2019-02-05T11:49:38.323Z,1024.28
2019-02-05T11:50:38.270Z,1024.29
2019-02-05T11:51:38.218Z,1024.28
2019-02-05T11:52:38.177Z,1024.27
2019-02-05T11:53:38.123Z,1024.29
2019-02-05T11:54:38.072Z,1024.36
2019-02-05T11:55:38.023Z,1024.32
2019-02-05T11:56:37.973Z,1024.31
2019-02-05T11:57:37.933Z,1024.38
2019-02-05T11:58:37.883Z,1024.34
2019-02-05T11:59:37.842Z,1024.36
2019-02-05T12:00:37.790Z,1024.37
2019-02-05T12:01:39.214Z,1024.35
2019-02-05T12:02:37.687Z,1024.41
2019-02-05T12:03:37.638Z,1024.40
2019-02-05T12:04:37.591Z,1024.34